Time;durP1;ratioP1;P1;durP2;ratioP2;P2;SDS_P1;SDS_P2;PMS_P1;PMS_P2;Temp;Humidity;BMP_temperature;BMP_pressure;BME280_temperature;BME280_humidity;BME280_pressure;Samples;Min_cycle;Max_cycle;Signal;HPM_P1;HPM_P2
2022/07/12 00:01:34;;;;;;;1.80;1.40;;;18.10;72.50;;;;;;9179636;19;20025;-65
2022/07/12 00:04:39;;;;;;;1.50;1.40;;;18.10;72.60;;;;;;9178454;19;20952;-65
2022/07/12 00:07:47;;;;;;;2.70;1.40;;;18.00;72.60;;;;;;9179405;19;20074;-64
2022/07/12 00:10:52;;;;;;;1.70;1.60;;;18.00;72.70;;;;;;9176748;19;20022;-65
2022/07/12 00:13:58;;;;;;;1.85;1.40;;;18.00;72.70;;;;;;9177248;19;20011;-64
2022/07/12 00:17:04;;;;;;;3.50;1.70;;;17.90;72.70;;;;;;9177058;19;20476;-67
2022/07/12 00:20:10;;;;;;;1.92;1.73;;;17.90;72.80;;;;;;9178820;19;20022;-67
2022/07/12 00:23:18;;;;;;;1.67;1.58;;;17.80;72.80;;;;;;9177731;19;20014;-63
2022/07/12 00:26:23;;;;;;;2.10;1.40;;;17.70;72.90;;;;;;9178016;19;20022;-65
2022/07/12 00:29:28;;;;;;;1.30;1.20;;;17.70;72.90;;;;;;9177140;19;20365;-65
2022/07/12 00:32:33;;;;;;;2.17;1.77;;;17.70;73.00;;;;;;9175246;19;20467;-64
2022/07/12 00:35:38;;;;;;;2.72;1.80;;;17.60;73.00;;;;;;9177610;19;20569;-63
2022/07/12 00:38:46;;;;;;;2.88;1.90;;;17.60;73.10;;;;;;9176494;19;20086;-64
2022/07/12 00:41:51;;;;;;;2.53;1.73;;;17.50;73.10;;;;;;9172590;19;20089;-64
2022/07/12 00:44:57;;;;;;;1.77;1.63;;;17.50;73.10;;;;;;9175888;19;20435;-65
2022/07/12 00:48:02;;;;;;;4.57;1.80;;;17.50;73.20;;;;;;9175842;19;20029;-65
2022/07/12 00:51:07;;;;;;;1.60;1.50;;;17.50;73.30;;;;;;9176793;19;20018;-65
2022/07/12 00:54:17;;;;;;;2.08;1.67;;;17.40;73.20;;;;;;9177820;19;20022;-65
2022/07/12 00:57:23;;;;;;;1.95;1.77;;;17.40;73.30;;;;;;9174412;19;20819;-64
2022/07/12 01:00:30;;;;;;;2.35;1.80;;;17.30;73.30;;;;;;9176613;19;20010;-63
2022/07/12 01:03:35;;;;;;;1.67;1.58;;;17.30;73.30;;;;;;9175725;19;20022;-64
2022/07/12 01:06:40;;;;;;;3.80;2.08;;;17.20;73.30;;;;;;9173775;19;20015;-63
2022/07/12 01:09:48;;;;;;;1.90;1.63;;;17.20;73.30;;;;;;9176073;19;20427;-67
2022/07/12 01:12:53;;;;;;;2.80;1.58;;;17.10;73.50;;;;;;9172115;19;20022;-64
2022/07/12 01:16:00;;;;;;;2.10;1.73;;;17.10;73.40;;;;;;9174763;19;20017;-64
2022/07/12 01:19:08;;;;;;;2.40;1.80;;;17.10;73.40;;;;;;9175197;19;20015;-64
2022/07/12 01:22:15;;;;;;;1.88;1.73;;;17.10;73.50;;;;;;9174681;19;20517;-65
2022/07/12 01:25:23;;;;;;;2.10;1.85;;;17.00;73.50;;;;;;9177431;19;20116;-65
2022/07/12 01:28:28;;;;;;;2.03;1.65;;;17.00;73.60;;;;;;9176804;19;20056;-65
2022/07/12 01:31:33;;;;;;;1.92;1.70;;;16.90;73.60;;;;;;9174003;19;20029;-63
2022/07/12 01:34:38;;;;;;;2.33;1.70;;;16.80;73.50;;;;;;9173337;19;20115;-65
2022/07/12 01:37:44;;;;;;;2.80;2.00;;;16.80;73.60;;;;;;9176374;19;20033;-64
2022/07/12 01:40:52;;;;;;;2.03;1.73;;;16.80;73.70;;;;;;9174651;19;20585;-66
2022/07/12 01:43:57;;;;;;;2.00;1.88;;;16.80;73.80;;;;;;9170129;19;20739;-64
2022/07/12 01:47:02;;;;;;;2.97;2.20;;;16.70;73.80;;;;;;9172331;19;20029;-63
2022/07/12 01:50:10;;;;;;;3.17;2.20;;;16.70;73.80;;;;;;9174023;19;20091;-62
2022/07/12 01:53:16;;;;;;;2.42;1.95;;;16.60;73.80;;;;;;9172441;19;20819;-66
2022/07/12 01:56:24;;;;;;;2.35;2.08;;;16.60;73.80;;;;;;9173495;19;20463;-64
2022/07/12 01:59:30;;;;;;;2.97;2.40;;;16.60;73.90;;;;;;9174539;19;20018;-64
2022/07/12 02:02:36;;;;;;;2.72;2.40;;;16.50;73.90;;;;;;9173373;19;20029;-64
2022/07/12 02:05:41;;;;;;;2.58;2.38;;;16.50;74.00;;;;;;9172217;19;20480;-64
2022/07/12 02:08:46;;;;;;;2.97;2.65;;;16.50;74.00;;;;;;9175691;19;20014;-62
2022/07/12 02:11:54;;;;;;;2.92;2.38;;;16.50;74.10;;;;;;9170909;19;20011;-63
2022/07/12 02:14:59;;;;;;;5.45;2.63;;;16.40;74.10;;;;;;9173002;19;20019;-63
2022/07/12 02:18:04;;;;;;;2.80;2.50;;;16.40;74.10;;;;;;9175554;19;20019;-63
2022/07/12 02:21:09;;;;;;;2.25;2.05;;;16.30;74.10;;;;;;9183215;19;20021;-63
2022/07/12 02:24:14;;;;;;;2.80;2.50;;;16.30;74.30;;;;;;9184005;19;20493;-64
2022/07/12 02:27:22;;;;;;;2.45;2.22;;;16.30;74.30;;;;;;9178139;19;20022;-63
2022/07/12 02:30:27;;;;;;;3.00;2.55;;;16.20;74.30;;;;;;9184893;19;20348;-63
2022/07/12 02:33:32;;;;;;;2.50;2.28;;;16.20;74.30;;;;;;9179522;19;20011;-63
2022/07/12 02:36:37;;;;;;;3.28;2.30;;;16.20;74.30;;;;;;9181960;19;20030;-63
2022/07/12 02:39:42;;;;;;;4.72;2.05;;;16.20;74.40;;;;;;9180838;19;20026;-63
2022/07/12 02:42:51;;;;;;;2.20;2.00;;;16.10;74.40;;;;;;9178231;19;20021;-63
2022/07/12 02:46:06;;;;;;;1.90;1.73;;;16.10;74.40;;;;;;9180978;19;20022;-64
2022/07/12 02:49:11;;;;;;;1.98;1.77;;;16.10;74.40;;;;;;9182285;19;20022;-62
2022/07/12 02:52:16;;;;;;;2.60;1.88;;;16.10;74.40;;;;;;9179055;19;20042;-66
2022/07/12 02:55:21;;;;;;;2.15;1.77;;;16.00;74.40;;;;;;9180211;19;20018;-62
2022/07/12 02:58:29;;;;;;;1.83;1.63;;;16.00;74.40;;;;;;9182803;19;20030;-64
2022/07/12 03:01:34;;;;;;;1.88;1.73;;;16.00;74.50;;;;;;9182919;19;20022;-63
2022/07/12 03:04:40;;;;;;;2.60;2.10;;;15.90;74.40;;;;;;9181158;19;20022;-64
2022/07/12 03:07:45;;;;;;;2.95;1.83;;;15.90;74.40;;;;;;9180538;19;20360;-62
2022/07/12 03:10:50;;;;;;;2.67;2.47;;;15.90;74.50;;;;;;9180616;19;20022;-64
2022/07/12 03:13:58;;;;;;;3.30;2.58;;;15.90;74.50;;;;;;9178902;19;20025;-64
2022/07/12 03:17:03;;;;;;;4.85;2.83;;;15.80;74.50;;;;;;9181962;19;20035;-63
2022/07/12 03:20:11;;;;;;;3.42;2.97;;;15.80;74.50;;;;;;9178815;19;20025;-62
2022/07/12 03:23:16;;;;;;;3.03;2.63;;;15.70;74.50;;;;;;9177633;19;20014;-63
2022/07/12 03:26:21;;;;;;;3.20;2.90;;;15.70;74.50;;;;;;9180477;19;20018;-62
2022/07/12 03:29:29;;;;;;;2.60;2.30;;;15.70;75.30;;;;;;9177805;19;20014;-62
2022/07/12 03:32:34;;;;;;;2.47;2.28;;;15.70;74.70;;;;;;9176951;19;20475;-63
2022/07/12 03:35:39;;;;;;;2.97;2.63;;;15.70;74.70;;;;;;9180072;19;20022;-64
2022/07/12 03:38:44;;;;;;;3.40;3.05;;;15.60;74.70;;;;;;9178245;19;20023;-62
2022/07/12 03:41:49;;;;;;;3.38;3.03;;;15.60;74.70;;;;;;9176308;19;20015;-63
2022/07/12 03:44:57;;;;;;;3.42;2.53;;;15.60;75.40;;;;;;9177211;19;20022;-64
2022/07/12 03:48:02;;;;;;;2.53;2.33;;;15.50;74.70;;;;;;9178699;19;20514;-63
2022/07/12 03:51:07;;;;;;;2.75;2.20;;;15.50;74.80;;;;;;9177750;19;20014;-61
2022/07/12 03:54:12;;;;;;;2.97;2.17;;;15.50;74.80;;;;;;9179711;19;20026;-63
2022/07/12 03:57:18;;;;;;;2.85;2.42;;;15.50;74.80;;;;;;9180056;19;20022;-63
2022/07/12 04:00:25;;;;;;;3.60;2.13;;;15.50;74.80;;;;;;9177989;19;20030;-63
2022/07/12 04:03:30;;;;;;;1.90;1.77;;;15.40;74.90;;;;;;9176399;19;20115;-64
2022/07/12 04:06:35;;;;;;;2.15;1.92;;;15.40;74.90;;;;;;9177212;19;20015;-63
2022/07/12 04:09:40;;;;;;;2.65;2.30;;;15.30;74.90;;;;;;9176704;19;20030;-63
2022/07/12 04:12:46;;;;;;;2.40;2.20;;;15.40;75.00;;;;;;9177370;19;20021;-63
2022/07/12 04:15:54;;;;;;;2.40;2.13;;;15.30;75.00;;;;;;9179568;19;20494;-63
2022/07/12 04:19:00;;;;;;;3.10;2.55;;;15.30;75.10;;;;;;9175335;19;20033;-63
2022/07/12 04:22:06;;;;;;;2.80;2.47;;;15.30;75.10;;;;;;9177859;19;20022;-63
2022/07/12 04:25:12;;;;;;;2.55;2.22;;;15.30;75.20;;;;;;9178761;19;20483;-65
2022/07/12 04:28:17;;;;;;;2.65;2.40;;;15.30;75.20;;;;;;9178739;19;20015;-62
2022/07/12 04:31:24;;;;;;;3.95;2.40;;;15.30;75.30;;;;;;9178775;19;20044;-62
2022/07/12 04:34:30;;;;;;;2.22;2.03;;;15.20;75.40;;;;;;9173861;19;20029;-64
2022/07/12 04:37:34;;;;;;;1.70;1.60;;;15.20;75.30;;;;;;9178179;19;20018;-63
2022/07/12 04:40:40;;;;;;;2.20;2.00;;;15.20;75.40;;;;;;9172902;19;20016;-64
2022/07/12 04:43:45;;;;;;;3.60;1.88;;;15.20;75.50;;;;;;9173779;19;20015;-63
2022/07/12 04:46:52;;;;;;;2.40;2.20;;;15.20;75.60;;;;;;9175328;19;20021;-63
2022/07/12 04:49:57;;;;;;;2.72;2.30;;;15.20;75.70;;;;;;9178027;19;20014;-64
2022/07/12 04:53:02;;;;;;;5.63;2.88;;;15.20;75.70;;;;;;9176430;19;20048;-63
2022/07/12 04:56:08;;;;;;;4.93;2.75;;;15.20;75.80;;;;;;9178268;19;20021;-63
2022/07/12 04:59:15;;;;;;;3.45;2.75;;;15.20;75.90;;;;;;9176453;19;20396;-63
2022/07/12 05:02:23;;;;;;;2.90;2.60;;;15.20;75.90;;;;;;9175352;19;20026;-64
2022/07/12 05:05:28;;;;;;;3.25;2.72;;;15.20;76.10;;;;;;9173384;19;20022;-64
2022/07/12 05:08:34;;;;;;;3.92;3.00;;;15.30;76.20;;;;;;9173967;19;20037;-63
2022/07/12 05:11:39;;;;;;;3.78;3.20;;;15.30;76.30;;;;;;9176556;19;21084;-64
2022/07/12 05:14:44;;;;;;;4.30;3.47;;;15.30;76.40;;;;;;9172881;19;20025;-63
2022/07/12 05:17:52;;;;;;;5.82;3.65;;;15.30;76.50;;;;;;9174709;19;20022;-63
2022/07/12 05:20:58;;;;;;;4.88;4.03;;;15.30;76.70;;;;;;9175536;19;20026;-63
2022/07/12 05:24:04;;;;;;;7.22;4.45;;;15.40;76.70;;;;;;9176217;19;20010;-64
2022/07/12 05:27:09;;;;;;;4.68;4.18;;;15.40;76.90;;;;;;9176957;19;20015;-65
2022/07/12 05:30:14;;;;;;;4.80;4.00;;;15.50;77.00;;;;;;9175009;19;20022;-63
2022/07/12 05:33:30;;;;;;;5.68;3.58;;;15.50;77.20;;;;;;9172613;19;20468;-64
2022/07/12 05:36:38;;;;;;;6.22;4.20;;;15.60;77.50;;;;;;9172363;19;20010;-63
2022/07/12 05:39:44;;;;;;;5.47;4.35;;;15.70;77.50;;;;;;9175312;19;20026;-63
2022/07/12 05:42:51;;;;;;;5.53;4.70;;;15.80;77.60;;;;;;9171432;19;20078;-64
2022/07/12 05:45:58;;;;;;;6.03;4.88;;;15.80;77.80;;;;;;9174122;19;20090;-63
2022/07/12 05:49:06;;;;;;;14.13;6.50;;;16.00;78.00;;;;;;9174055;19;20026;-64
2022/07/12 05:55:28;;;;;;;18.48;8.55;;;16.30;78.40;;;;;;9182648;19;20439;-63
2022/07/12 05:58:33;;;;;;;22.95;9.10;;;16.40;78.30;;;;;;9182789;19;20479;-65
2022/07/12 06:01:44;;;;;;;22.58;9.60;;;16.60;78.30;;;;;;9183756;19;20052;-63
2022/07/12 06:04:52;;;;;;;13.27;7.35;;;16.70;78.40;;;;;;9182141;19;20021;-63
2022/07/12 06:07:57;;;;;;;10.02;5.90;;;16.90;78.70;;;;;;9180948;19;20019;-63
2022/07/12 06:11:02;;;;;;;7.15;5.45;;;17.10;78.70;;;;;;9185814;19;20002;-64
2022/07/12 06:14:07;;;;;;;7.20;5.55;;;17.20;78.70;;;;;;9184870;19;20013;-64
2022/07/12 06:17:12;;;;;;;8.30;5.00;;;17.50;78.80;;;;;;9174237;19;20050;-65
2022/07/12 06:20:19;;;;;;;5.93;4.93;;;17.70;78.90;;;;;;9176664;19;20007;-65
2022/07/12 06:23:24;;;;;;;13.13;4.82;;;17.90;79.00;;;;;;9175145;19;20018;-64
2022/07/12 06:26:29;;;;;;;6.40;5.05;;;18.20;78.90;;;;;;9181309;19;20032;-66
2022/07/12 06:29:35;;;;;;;7.00;4.35;;;18.50;78.70;;;;;;9182527;19;20015;-63
2022/07/12 06:32:40;;;;;;;5.28;3.88;;;18.70;78.60;;;;;;9183299;19;20063;-66
2022/07/12 06:35:48;;;;;;;7.10;4.38;;;19.00;78.40;;;;;;9181517;19;20021;-66
2022/07/12 06:38:53;;;;;;;5.07;3.95;;;19.30;78.30;;;;;;9179064;19;20052;-66
2022/07/12 06:41:58;;;;;;;8.00;4.25;;;19.60;78.00;;;;;;9176564;19;20023;-66
2022/07/12 06:45:03;;;;;;;6.05;4.53;;;19.80;77.60;;;;;;9180711;19;20018;-66
2022/07/12 06:48:09;;;;;;;10.98;3.95;;;19.90;77.40;;;;;;9184247;19;20037;-65
2022/07/12 06:51:16;;;;;;;3.75;3.40;;;20.20;77.20;;;;;;9185456;19;20003;-68
2022/07/12 06:54:21;;;;;;;5.15;3.70;;;20.30;77.00;;;;;;9184483;19;20044;-65
2022/07/12 06:57:29;;;;;;;4.72;3.50;;;20.40;76.80;;;;;;9187073;19;20014;-66
2022/07/12 07:00:34;;;;;;;7.22;3.80;;;20.60;76.70;;;;;;9185226;19;20024;-66
2022/07/12 07:03:40;;;;;;;7.90;4.50;;;20.70;76.60;;;;;;9185222;19;20042;-67
2022/07/12 07:06:47;;;;;;;4.22;3.50;;;20.80;76.40;;;;;;9185563;19;20025;-66
2022/07/12 07:09:53;;;;;;;7.03;3.67;;;20.90;76.30;;;;;;9186470;19;20014;-66
2022/07/12 07:12:58;;;;;;;4.22;3.63;;;21.00;76.30;;;;;;9186589;19;20014;-66
2022/07/12 07:16:03;;;;;;;7.90;4.30;;;21.20;76.20;;;;;;9186972;19;20010;-65
2022/07/12 07:19:08;;;;;;;5.20;4.05;;;21.30;76.10;;;;;;9185246;19;20022;-64
2022/07/12 07:22:16;;;;;;;5.90;3.63;;;21.40;76.00;;;;;;9184894;19;20077;-66
2022/07/12 07:25:22;;;;;;;4.68;3.47;;;21.50;75.90;;;;;;9186077;19;20018;-65
2022/07/12 07:28:27;;;;;;;6.07;3.53;;;21.60;75.80;;;;;;9184018;19;20388;-68
2022/07/12 07:31:49;;;;;;;6.70;3.08;;;21.80;75.70;;;;;;9184602;19;20010;-67
2022/07/12 07:34:54;;;;;;;4.50;3.05;;;21.90;75.60;;;;;;9182819;19;20010;-68
2022/07/12 07:38:02;;;;;;;21.55;3.25;;;22.10;75.50;;;;;;9185643;19;20024;-66
2022/07/12 07:41:08;;;;;;;7.85;3.33;;;22.20;75.20;;;;;;9178554;19;20017;-66
2022/07/12 07:44:13;;;;;;;4.97;3.28;;;22.40;75.10;;;;;;9177840;19;20026;-66
2022/07/12 07:47:20;;;;;;;8.73;2.58;;;22.50;74.90;;;;;;9180568;19;20086;-69
2022/07/12 07:50:26;;;;;;;3.38;2.42;;;22.70;74.90;;;;;;9180622;19;20027;-68
2022/07/12 07:53:33;;;;;;;4.45;2.13;;;22.80;74.80;;;;;;9179004;19;20038;-68
2022/07/12 07:56:39;;;;;;;2.50;2.30;;;23.00;74.60;;;;;;9176091;19;20022;-67
2022/07/12 07:59:44;;;;;;;3.40;1.75;;;23.30;74.40;;;;;;9177213;19;20015;-67
2022/07/12 08:02:49;;;;;;;2.67;1.60;;;23.50;74.10;;;;;;9175820;19;20022;-68
2022/07/12 08:05:57;;;;;;;2.28;1.85;;;23.70;73.90;;;;;;9175855;19;20042;-68
2022/07/12 08:09:05;;;;;;;7.15;1.83;;;23.90;73.60;;;;;;9179612;19;20014;-68
2022/07/12 08:12:18;;;;;;;3.13;2.00;;;24.10;73.40;;;;;;9181315;19;20045;-68
2022/07/12 08:15:26;;;;;;;1.98;1.65;;;24.30;73.00;;;;;;9181854;19;20344;-68
2022/07/12 08:18:31;;;;;;;2.67;1.70;;;24.50;72.80;;;;;;9181792;19;20356;-71
2022/07/12 08:21:36;;;;;;;3.72;2.05;;;24.70;72.30;;;;;;9182975;19;20026;-69
2022/07/12 08:24:44;;;;;;;2.67;1.27;;;24.90;72.00;;;;;;9181752;19;20059;-67
2022/07/12 08:27:49;;;;;;;3.72;1.70;;;25.10;71.60;;;;;;9181302;19;20090;-67
2022/07/12 08:30:55;;;;;;;1.58;1.45;;;25.20;71.30;;;;;;9180218;19;20069;-67
2022/07/12 08:34:01;;;;;;;1.85;1.70;;;25.40;71.20;;;;;;9179687;19;20023;-68
2022/07/12 08:37:07;;;;;;;2.72;2.10;;;25.50;70.90;;;;;;9177008;19;20048;-67
2022/07/12 08:40:17;;;;;;;3.50;1.98;;;25.70;70.70;;;;;;9178728;19;20476;-67
2022/07/12 08:43:23;;;;;;;2.10;1.90;;;25.80;70.30;;;;;;9173540;19;20475;-68
2022/07/12 08:46:35;;;;;;;2.65;1.75;;;26.00;70.20;;;;;;9166798;19;20018;-67
2022/07/12 08:49:40;;;;;;;2.92;1.40;;;26.10;70.00;;;;;;9179692;19;20038;-68
2022/07/12 08:52:49;;;;;;;4.53;0.85;;;26.30;69.70;;;;;;9179714;19;20086;-67
2022/07/12 08:55:56;;;;;;;3.25;1.38;;;26.40;69.30;;;;;;9175938;19;20018;-69
2022/07/12 08:59:16;;;;;;;2.03;0.93;;;26.60;68.90;;;;;;9173754;19;20026;-71
2022/07/12 09:02:21;;;;;;;1.40;1.30;;;26.70;68.40;;;;;;9171142;19;20368;-70
2022/07/12 09:05:28;;;;;;;3.05;1.20;;;26.90;68.50;;;;;;9167607;19;20025;-69
2022/07/12 09:08:34;;;;;;;2.05;1.30;;;27.00;68.00;;;;;;9175313;19;20488;-68
2022/07/12 09:11:50;;;;;;;0.77;0.75;;;27.10;67.80;;;;;;9176767;19;20347;-69
2022/07/12 09:14:55;;;;;;;0.75;0.75;;;27.20;67.40;;;;;;9175431;19;20060;-69
2022/07/12 09:18:03;;;;;;;2.08;1.17;;;27.30;67.30;;;;;;9176872;19;20014;-69
2022/07/12 09:21:09;;;;;;;2.00;1.00;;;27.40;67.00;;;;;;9175388;19;20018;-68
2022/07/12 09:24:15;;;;;;;2.03;0.98;;;27.50;66.80;;;;;;9174634;19;20026;-68
2022/07/12 09:27:27;;;;;;;1.20;0.60;;;27.60;66.50;;;;;;9179482;19;20015;-68
2022/07/12 09:30:36;;;;;;;1.65;0.70;;;27.70;66.10;;;;;;9194780;19;20398;-69
2022/07/12 09:37:01;;;;;;;1.60;1.00;;;27.90;65.90;;;;;;9194877;19;20015;-68
2022/07/12 09:40:11;;;;;;;3.35;0.88;;;28.00;65.80;;;;;;9194572;19;20861;-69
2022/07/12 09:43:20;;;;;;;5.28;0.80;;;28.00;65.40;;;;;;9189151;19;20014;-70
2022/07/12 09:46:25;;;;;;;1.33;0.80;;;28.20;65.20;;;;;;9193354;19;20424;-71
2022/07/12 09:49:32;;;;;;;1.73;1.10;;;28.30;65.00;;;;;;9192340;19;20085;-69
2022/07/12 09:52:40;;;;;;;0.80;0.70;;;28.40;64.80;;;;;;9193517;19;20014;-69
2022/07/12 09:55:47;;;;;;;0.88;0.80;;;28.60;64.50;;;;;;9191672;19;20025;-69
2022/07/12 09:59:05;;;;;;;1.40;0.87;;;28.70;64.30;;;;;;9193321;19;20017;-72
2022/07/12 10:02:15;;;;;;;0.70;0.70;;;28.80;63.90;;;;;;9191512;19;20364;-68
2022/07/12 10:05:21;;;;;;;0.82;0.80;;;28.90;64.00;;;;;;9184888;19;20023;-69
2022/07/12 10:08:26;;;;;;;1.17;0.90;;;29.10;63.70;;;;;;9191276;19;20021;-69
2022/07/12 10:11:32;;;;;;;1.00;0.98;;;29.20;63.40;;;;;;9190246;19;20047;-68
2022/07/12 10:15:06;;;;;;;8.77;0.90;;;29.30;63.20;;;;;;9192064;19;20014;-69
2022/07/12 10:18:18;;;;;;;1.02;0.60;;;29.30;62.70;;;;;;9190569;19;20090;-67
2022/07/12 10:21:24;;;;;;;0.40;0.40;;;29.40;62.40;;;;;;9191389;19;20018;-66
2022/07/12 10:24:52;;;;;;;3.97;1.38;;;29.40;62.40;;;;;;9190169;19;20483;-68
2022/07/12 10:28:05;;;;;;;2.08;0.70;;;29.50;61.80;;;;;;9192374;19;20029;-68
2022/07/12 10:31:15;;;;;;;0.75;0.45;;;29.50;62.00;;;;;;9190585;19;20010;-67
2022/07/12 10:34:27;;;;;;;1.92;0.47;;;29.60;61.60;;;;;;9192626;19;20022;-65
2022/07/12 10:37:33;;;;;;;0.85;0.60;;;29.60;61.40;;;;;;9192206;19;20022;-67
2022/07/12 10:40:38;;;;;;;1.70;0.60;;;29.70;61.40;;;;;;9181754;19;20579;-69
2022/07/12 10:47:09;;;;;;;1.15;0.43;;;29.80;61.00;;;;;;9181345;19;20472;-66
2022/07/12 10:50:15;;;;;;;1.27;0.50;;;29.80;60.70;;;;;;9179097;19;20019;-67
2022/07/12 10:53:23;;;;;;;2.05;0.50;;;29.90;60.50;;;;;;9179302;19;20018;-69
2022/07/12 10:56:38;;;;;;;0.50;0.40;;;30.00;60.00;;;;;;9177023;19;20390;-67
2022/07/12 10:59:48;;;;;;;0.38;0.30;;;30.10;60.00;;;;;;9180451;19;20018;-67
2022/07/12 11:02:56;;;;;;;0.77;0.40;;;30.10;60.10;;;;;;9179169;19;20015;-69
2022/07/12 11:06:04;;;;;;;0.40;0.22;;;30.20;59.50;;;;;;9176936;19;20014;-69
2022/07/12 11:09:11;;;;;;;0.45;0.45;;;30.20;59.30;;;;;;9186063;19;20465;-69
2022/07/12 11:12:18;;;;;;;0.75;0.20;;;30.30;59.20;;;;;;9183730;19;20018;-66
2022/07/12 11:15:23;;;;;;;0.30;0.30;;;30.30;59.10;;;;;;9181225;19;20015;-67
2022/07/12 11:18:36;;;;;;;0.43;0.30;;;30.30;58.90;;;;;;9183952;19;20010;-68
2022/07/12 11:21:45;;;;;;;0.45;0.40;;;30.30;58.40;;;;;;9182143;19;20030;-68
2022/07/12 11:24:50;;;;;;;2.35;0.30;;;30.40;58.50;;;;;;9174236;19;20014;-68
2022/07/12 11:27:56;;;;;;;0.50;0.40;;;30.40;58.20;;;;;;9178876;19;20022;-68
2022/07/12 11:31:06;;;;;;;0.20;0.20;;;30.40;58.00;;;;;;9175788;19;20082;-68
2022/07/12 11:34:25;;;;;;;0.20;0.20;;;30.40;57.70;;;;;;9179473;19;20022;-68
2022/07/12 11:37:30;;;;;;;0.52;0.40;;;30.40;57.40;;;;;;9177745;19;20085;-68
2022/07/12 11:40:36;;;;;;;0.60;0.40;;;30.50;57.80;;;;;;9175338;19;20030;-69
2022/07/12 11:43:44;;;;;;;0.77;0.45;;;30.50;57.70;;;;;;9178194;19;20068;-71
2022/07/12 11:46:52;;;;;;;2.15;0.45;;;30.60;57.60;;;;;;9176777;19;20015;-68
2022/07/12 11:50:00;;;;;;;1.73;0.50;;;30.70;57.40;;;;;;9177261;19;20018;-69
2022/07/12 11:53:06;;;;;;;1.48;0.45;;;30.70;57.20;;;;;;9181057;19;20022;-68
2022/07/12 11:56:24;;;;;;;0.30;0.30;;;30.80;57.20;;;;;;9172226;19;20082;-69
2022/07/12 11:59:29;;;;;;;2.40;0.40;;;30.90;57.10;;;;;;9173339;19;20590;-72
2022/07/12 12:02:34;;;;;;;0.57;0.40;;;30.90;56.90;;;;;;9174438;19;20060;-69
2022/07/12 12:05:43;;;;;;;1.30;0.35;;;30.90;56.70;;;;;;9172681;19;20043;-70
2022/07/12 12:08:52;;;;;;;0.20;0.20;;;31.00;56.30;;;;;;9178966;19;20015;-71
2022/07/12 12:11:58;;;;;;;0.50;0.43;;;31.00;56.30;;;;;;9179236;19;20049;-70
2022/07/12 12:15:07;;;;;;;1.73;0.20;;;31.00;56.10;;;;;;9179219;19;20018;-70
2022/07/12 12:18:13;;;;;;;1.02;0.30;;;31.00;55.90;;;;;;9184101;19;20545;-72
2022/07/12 12:21:29;;;;;;;0.85;0.40;;;31.10;55.90;;;;;;9182826;19;20034;-71
2022/07/12 12:24:38;;;;;;;2.70;0.50;;;31.10;55.40;;;;;;9183442;19;20498;-70
2022/07/12 12:27:48;;;;;;;0.40;0.40;;;31.10;55.70;;;;;;9185185;19;20010;-68
2022/07/12 12:31:15;;;;;;;0.50;0.30;;;31.10;55.60;;;;;;9182308;19;20037;-69
2022/07/12 12:34:23;;;;;;;1.90;0.35;;;31.10;55.40;;;;;;9182324;19;20010;-70
2022/07/12 12:37:34;;;;;;;0.20;0.20;;;31.20;55.30;;;;;;9179646;19;20018;-70
2022/07/12 12:40:40;;;;;;;0.35;0.30;;;31.20;55.00;;;;;;9180966;19;20029;-70
2022/07/12 12:43:49;;;;;;;0.43;0.25;;;31.20;54.90;;;;;;9181114;19;20010;-69
2022/07/12 12:50:22;;;;;;;2.25;0.30;;;31.30;54.90;;;;;;9171176;19;20006;-71
2022/07/12 12:53:32;;;;;;;1.17;0.28;;;31.30;54.70;;;;;;9173656;19;20014;-69
2022/07/12 12:56:37;;;;;;;1.30;0.30;;;31.30;54.40;;;;;;9173301;19;20015;-68
2022/07/12 12:59:45;;;;;;;3.92;0.77;;;31.30;54.40;;;;;;9171455;19;20360;-69
2022/07/12 13:02:54;;;;;;;0.47;0.40;;;31.40;54.30;;;;;;9170676;19;20516;-71
2022/07/12 13:06:07;;;;;;;0.22;0.15;;;31.40;54.10;;;;;;9168549;19;20508;-72
2022/07/12 13:09:15;;;;;;;0.43;0.28;;;31.40;54.00;;;;;;9172559;19;20077;-69
2022/07/12 13:12:20;;;;;;;0.20;0.20;;;31.40;53.80;;;;;;9170563;19;20101;-70
2022/07/12 13:15:25;;;;;;;0.50;0.35;;;31.40;53.90;;;;;;9173761;19;20050;-67
2022/07/12 13:18:30;;;;;;;1.38;0.68;;;31.40;53.80;;;;;;9169511;19;20048;-69
2022/07/12 13:21:36;;;;;;;0.55;0.40;;;31.40;53.70;;;;;;9171826;19;20097;-70
2022/07/12 13:24:47;;;;;;;0.30;0.13;;;31.40;53.60;;;;;;9173896;19;20014;-69
2022/07/12 13:27:53;;;;;;;3.05;0.30;;;31.30;53.30;;;;;;9172650;19;20086;-66
2022/07/12 13:30:58;;;;;;;0.63;0.20;;;31.40;53.30;;;;;;9175751;19;20010;-66
2022/07/12 13:34:04;;;;;;;1.67;0.40;;;31.40;53.20;;;;;;9181185;19;20019;-66
2022/07/12 13:37:09;;;;;;;3.03;0.32;;;31.40;53.00;;;;;;9176918;19;20018;-66
2022/07/12 13:40:22;;;;;;;1.33;0.30;;;31.40;53.00;;;;;;9180416;19;20018;-65
2022/07/12 13:43:27;;;;;;;0.30;0.28;;;31.40;52.50;;;;;;9180059;19;20403;-66
2022/07/12 13:46:32;;;;;;;2.65;0.30;;;31.30;52.50;;;;;;9179503;19;20026;-66
2022/07/12 13:49:38;;;;;;;0.88;0.68;;;31.30;52.30;;;;;;9178730;19;20656;-67
2022/07/12 13:52:44;;;;;;;4.60;0.45;;;31.30;52.30;;;;;;9179348;19;20123;-70
2022/07/12 13:55:55;;;;;;;3.22;0.50;;;31.30;52.20;;;;;;9177052;19;20018;-68
2022/07/12 13:59:00;;;;;;;4.38;0.50;;;31.20;52.00;;;;;;9179392;19;20006;-66
2022/07/12 14:02:06;;;;;;;0.57;0.47;;;31.20;52.10;;;;;;9177894;19;20034;-67
2022/07/12 14:05:16;;;;;;;0.32;0.32;;;31.20;52.20;;;;;;9173867;19;20022;-67
2022/07/12 14:08:21;;;;;;;0.63;0.52;;;31.10;52.20;;;;;;9178668;19;20016;-68
2022/07/12 14:11:29;;;;;;;2.13;0.40;;;31.00;52.30;;;;;;9176457;19;20421;-66
2022/07/12 14:17:55;;;;;;;0.50;0.35;;;31.00;52.40;;;;;;9183573;19;20022;-67
2022/07/12 14:21:02;;;;;;;0.77;0.60;;;30.90;52.40;;;;;;9184840;19;20014;-68
2022/07/12 14:24:11;;;;;;;1.20;0.30;;;30.90;52.00;;;;;;9186296;19;20052;-68
2022/07/12 14:27:18;;;;;;;4.70;0.63;;;30.80;51.90;;;;;;9184574;19;20470;-68
2022/07/12 14:30:24;;;;;;;1.85;0.50;;;30.80;51.80;;;;;;9185916;19;20392;-68
2022/07/12 14:33:29;;;;;;;1.42;0.32;;;30.80;52.10;;;;;;9186461;19;20011;-68
2022/07/12 14:36:35;;;;;;;1.30;0.30;;;30.80;51.90;;;;;;9185167;19;20018;-68
2022/07/12 14:39:41;;;;;;;1.73;0.40;;;30.80;51.70;;;;;;9186990;19;20035;-68
2022/07/12 14:42:49;;;;;;;0.30;0.20;;;30.90;51.80;;;;;;9186197;19;20064;-69
2022/07/12 14:45:55;;;;;;;1.52;0.40;;;30.90;51.60;;;;;;9186982;19;20046;-69
2022/07/12 14:49:00;;;;;;;0.95;0.57;;;30.90;51.60;;;;;;9184600;19;20010;-67
2022/07/12 14:52:08;;;;;;;1.17;0.60;;;30.90;51.50;;;;;;9182553;19;20030;-67
2022/07/12 14:55:13;;;;;;;3.78;0.85;;;30.80;51.40;;;;;;9186582;19;20456;-68
2022/07/12 14:58:23;;;;;;;2.10;0.45;;;30.80;51.40;;;;;;9180647;19;20025;-68
2022/07/12 15:01:29;;;;;;;3.33;0.50;;;30.80;51.40;;;;;;9185296;19;20025;-67
2022/07/12 15:04:34;;;;;;;0.90;0.60;;;30.80;51.60;;;;;;9181873;19;20074;-69
2022/07/12 15:07:39;;;;;;;1.45;0.40;;;30.80;51.70;;;;;;9184773;19;20409;-68
2022/07/12 15:10:45;;;;;;;1.70;0.47;;;30.70;51.70;;;;;;9184288;19;20018;-68
2022/07/12 15:13:53;;;;;;;0.63;0.55;;;30.60;51.90;;;;;;9183739;19;20026;-67
2022/07/12 15:16:58;;;;;;;3.33;0.50;;;30.60;51.60;;;;;;9176620;19;20098;-66
2022/07/12 15:20:05;;;;;;;2.90;1.10;;;30.50;51.50;;;;;;9177567;19;20022;-67
2022/07/12 15:23:10;;;;;;;1.05;0.50;;;30.50;51.60;;;;;;9176308;19;20010;-69
2022/07/12 15:26:15;;;;;;;0.65;0.40;;;30.40;51.70;;;;;;9178120;19;20016;-66
2022/07/12 15:29:24;;;;;;;2.45;0.88;;;30.40;51.90;;;;;;9177763;19;20018;-66
2022/07/12 15:32:30;;;;;;;1.05;0.55;;;30.30;51.70;;;;;;9178583;19;20027;-68
2022/07/12 15:35:40;;;;;;;1.00;0.40;;;30.30;51.70;;;;;;9178458;19;20021;-67
2022/07/12 15:38:48;;;;;;;0.30;0.25;;;30.20;51.70;;;;;;9175860;19;20015;-69
2022/07/12 15:41:56;;;;;;;2.47;0.40;;;30.10;51.50;;;;;;9180023;19;20011;-72
2022/07/12 15:45:04;;;;;;;1.23;0.30;;;30.10;51.60;;;;;;9179644;19;20487;-70
2022/07/12 15:48:12;;;;;;;2.20;0.88;;;30.10;51.40;;;;;;9177870;19;20101;-72
2022/07/12 15:51:19;;;;;;;1.38;0.55;;;30.00;51.60;;;;;;9178953;19;20015;-70
2022/07/12 15:54:23;;;;;;;0.35;0.35;;;30.00;51.50;;;;;;9179994;19;20035;-72
2022/07/12 15:57:30;;;;;;;0.50;0.40;;;30.00;51.50;;;;;;9180358;19;20033;-72
2022/07/12 16:00:38;;;;;;;1.50;0.60;;;29.90;51.40;;;;;;9174934;19;20025;-71
2022/07/12 16:03:44;;;;;;;2.70;0.20;;;29.90;51.40;;;;;;9167357;19;20033;-70
2022/07/12 16:07:09;;;;;;;0.90;0.38;;;29.80;51.50;;;;;;9175172;19;20027;-72
2022/07/12 16:10:16;;;;;;;1.73;0.65;;;29.80;51.70;;;;;;9175397;19;20026;-74
2022/07/12 16:13:26;;;;;;;1.23;0.50;;;29.70;51.50;;;;;;9175392;19;20014;-73
2022/07/12 16:16:35;;;;;;;1.80;0.60;;;29.70;51.40;;;;;;9177737;19;20010;-75
2022/07/12 16:19:44;;;;;;;1.20;0.70;;;29.60;51.30;;;;;;9174454;19;20482;-74
2022/07/12 16:22:49;;;;;;;4.60;0.70;;;29.60;51.40;;;;;;9177929;19;20018;-74
2022/07/12 16:25:55;;;;;;;2.90;1.27;;;29.60;51.50;;;;;;9175549;19;20033;-73
2022/07/12 16:29:07;;;;;;;2.92;1.15;;;29.60;51.50;;;;;;9176706;19;20061;-73